TAF KLRD
KLRD 280520Z 2806/2906 35005KT P6SM OVC025 TEMPO 2808/2812 BKN007 FM281200 34008KT P6SM BKN250=
METAR KLRD
COR KLRD 280656Z AUTO 33004KT 10SM BKN110 11/09 A3014 RMK AO2 SLP208 T01060094 ?
SPECI KLRD 280614Z AUTO 36003KT 10SM SCT020 11/09 A3014 RMK AO2 ?
KLRD 280556Z AUTO 00000KT 10SM BKN020 11/09 A3014 RMK AO2 SLP209 T01060094 10117 20106 401440089 58000 ?
KLRD 280456Z 00000KT 10SM FEW010 OVC020 11/09 A3015 RMK AO2 SLP212 T01110094 ?
KLRD 280356Z 05003KT 10SM OVC022 11/09 A3015 RMK AO2 SLP212 T01110094 ?
WC KLRD
WS KLRD
WV KLRD